Time;durP1;ratioP1;P1;durP2;ratioP2;P2;SDS_P1;SDS_P2;PMS_P1;PMS_P2;Temp;Humidity;BMP_temperature;BMP_pressure;BME280_temperature;BME280_humidity;BME280_pressure;Samples;Min_cycle;Max_cycle;Signal;HPM_P1;HPM_P2
2022/05/06 00:00:38;;;;;;;4.28;3.70;;;19.70;47.20;;;;;;5011112;28;20177;-88
2022/05/06 00:03:05;;;;;;;6.30;3.97;;;19.70;47.10;;;;;;5011338;28;20189;-88
2022/05/06 00:05:33;;;;;;;5.00;3.75;;;19.70;47.10;;;;;;4994888;28;20209;-88
2022/05/06 00:08:00;;;;;;;7.25;3.80;;;19.70;47.20;;;;;;4989008;28;20233;-89
2022/05/06 00:10:26;;;;;;;6.70;4.10;;;19.70;47.00;;;;;;5007412;28;20169;-88
2022/05/06 00:12:56;;;;;;;6.00;3.90;;;19.70;47.00;;;;;;5008014;28;20170;-88
2022/05/06 00:15:22;;;;;;;4.72;3.40;;;19.70;47.00;;;;;;4991235;28;20189;-88
2022/05/06 00:17:53;;;;;;;6.07;3.78;;;19.70;47.20;;;;;;5008549;28;20174;-88
2022/05/06 00:20:19;;;;;;;5.22;3.58;;;19.60;47.20;;;;;;4975401;28;20209;-88
2022/05/06 00:23:00;;;;;;;4.65;3.92;;;19.60;48.10;;;;;;5009118;28;20646;-88
2022/05/06 00:25:34;;;;;;;7.35;4.32;;;19.60;47.80;;;;;;4991150;28;20248;-88
2022/05/06 00:28:04;;;;;;;4.28;3.65;;;19.70;47.80;;;;;;5008147;28;20228;-88
2022/05/06 00:30:36;;;;;;;5.28;3.88;;;19.60;47.30;;;;;;4958840;28;20182;-88
2022/05/06 00:33:13;;;;;;;4.68;3.67;;;19.60;47.00;;;;;;4991141;28;20233;-89
2022/05/06 00:35:41;;;;;;;5.20;3.88;;;19.60;46.90;;;;;;4992582;28;20246;-88
2022/05/06 00:38:12;;;;;;;5.63;4.10;;;19.60;46.90;;;;;;5008458;28;20174;-89
2022/05/06 00:40:38;;;;;;;6.20;3.38;;;19.60;47.00;;;;;;4991322;28;20186;-88
2022/05/06 00:43:08;;;;;;;5.65;3.80;;;19.60;47.20;;;;;;5009129;28;20174;-88
2022/05/06 00:45:55;;;;;;;5.28;4.15;;;19.60;47.30;;;;;;4968119;28;20221;-88
2022/05/06 00:48:30;;;;;;;6.50;4.03;;;19.60;47.20;;;;;;4975728;28;20197;-88
2022/05/06 00:51:01;;;;;;;4.93;3.95;;;19.60;47.20;;;;;;4976205;28;20651;-88
2022/05/06 00:53:35;;;;;;;4.75;3.83;;;19.60;47.30;;;;;;4992285;28;20183;-88
2022/05/06 00:56:01;;;;;;;5.53;4.00;;;19.60;47.20;;;;;;4980847;28;20213;-88
2022/05/06 00:58:29;;;;;;;5.75;3.83;;;19.60;47.90;;;;;;5029282;28;20166;-88
2022/05/06 01:00:56;;;;;;;5.25;3.83;;;19.60;47.20;;;;;;5012225;28;20175;-89
2022/05/06 01:03:26;;;;;;;4.80;4.05;;;19.60;47.50;;;;;;4996508;28;20221;-88
2022/05/06 01:05:52;;;;;;;4.97;3.70;;;19.60;47.40;;;;;;4994531;28;20210;-88
2022/05/06 01:08:26;;;;;;;5.93;4.20;;;19.50;47.30;;;;;;5014299;28;20666;-89
2022/05/06 01:10:51;;;;;;;5.70;4.15;;;19.60;47.40;;;;;;5014978;28;20228;-89
2022/05/06 01:13:23;;;;;;;4.75;3.78;;;19.60;47.60;;;;;;5031297;28;20551;-88
2022/05/06 01:15:58;;;;;;;5.45;3.78;;;19.50;47.40;;;;;;5029842;28;20186;-88
2022/05/06 01:18:51;;;;;;;6.95;4.35;;;19.60;47.50;;;;;;5014190;28;20182;-88
2022/05/06 01:21:24;;;;;;;4.75;3.78;;;19.50;47.80;;;;;;5013798;28;20247;-88
2022/05/06 01:23:54;;;;;;;5.38;3.80;;;19.50;47.40;;;;;;5014540;28;20230;-88
2022/05/06 01:26:20;;;;;;;6.03;4.10;;;19.60;47.60;;;;;;5013779;28;20213;-89
2022/05/06 01:28:50;;;;;;;6.82;3.70;;;19.50;47.70;;;;;;5030679;28;20167;-88
2022/05/06 01:31:22;;;;;;;4.72;3.60;;;19.50;47.30;;;;;;5013319;28;20178;-88
2022/05/06 01:33:55;;;;;;;4.47;3.80;;;19.50;47.50;;;;;;5012969;28;20174;-89
2022/05/06 01:36:25;;;;;;;5.10;3.80;;;19.50;47.40;;;;;;5013656;28;20277;-88
2022/05/06 01:39:03;;;;;;;5.85;4.00;;;19.50;47.50;;;;;;5029519;28;20190;-88
2022/05/06 01:41:35;;;;;;;5.78;4.03;;;19.50;47.50;;;;;;5013579;28;20196;-89
2022/05/06 01:44:07;;;;;;;5.05;4.05;;;19.50;47.50;;;;;;5014575;28;20528;-88
2022/05/06 01:46:39;;;;;;;7.50;4.50;;;19.50;47.60;;;;;;5013622;28;20232;-88
2022/05/06 01:49:10;;;;;;;6.45;4.20;;;19.50;47.70;;;;;;5029959;28;20186;-88
2022/05/06 01:51:38;;;;;;;4.57;3.67;;;19.40;47.50;;;;;;5013591;28;20186;-88
2022/05/06 01:54:10;;;;;;;4.68;3.90;;;19.40;47.50;;;;;;5029841;28;20174;-89
2022/05/06 01:56:46;;;;;;;5.53;3.83;;;19.40;47.40;;;;;;5047390;28;20245;-88
2022/05/06 01:59:17;;;;;;;4.50;3.65;;;19.40;47.50;;;;;;5030401;28;20170;-88
2022/05/06 02:01:47;;;;;;;6.13;4.00;;;19.40;47.50;;;;;;5012997;28;20188;-87
2022/05/06 02:07:00;;;;;;;4.47;3.75;;;19.40;47.50;;;;;;5033113;28;20225;-88
2022/05/06 02:09:30;;;;;;;5.68;4.00;;;19.50;47.60;;;;;;5029425;28;20169;-88
2022/05/06 02:12:01;;;;;;;4.75;4.20;;;19.40;47.40;;;;;;5013428;28;20189;-88
2022/05/06 02:14:34;;;;;;;4.43;3.70;;;19.40;47.60;;;;;;5028988;28;20186;-88
2022/05/06 02:17:01;;;;;;;4.68;3.88;;;19.40;47.60;;;;;;5013067;28;20215;-88
2022/05/06 02:19:33;;;;;;;5.57;3.85;;;19.40;47.60;;;;;;5028398;28;20671;-88
2022/05/06 02:21:59;;;;;;;6.05;3.95;;;19.50;47.60;;;;;;5012378;28;20234;-87
2022/05/06 02:24:31;;;;;;;5.75;3.90;;;19.30;47.50;;;;;;5012407;28;20205;-88
2022/05/06 02:27:01;;;;;;;5.93;3.80;;;19.40;47.50;;;;;;5045084;28;20253;-87
2022/05/06 02:29:30;;;;;;;5.03;4.05;;;19.30;47.70;;;;;;5011562;28;20196;-88
2022/05/06 02:34:42;;;;;;;4.75;4.07;;;19.30;47.70;;;;;;5034355;28;20184;-87
2022/05/06 02:37:09;;;;;;;5.78;3.63;;;19.40;47.70;;;;;;5029476;28;20574;-88
2022/05/06 02:39:39;;;;;;;4.90;3.80;;;19.30;47.80;;;;;;5045832;28;20155;-87
2022/05/06 02:42:11;;;;;;;4.47;4.00;;;19.40;47.90;;;;;;5028290;28;20541;-88
2022/05/06 02:44:37;;;;;;;6.55;4.05;;;19.40;47.90;;;;;;5011308;28;20256;-88
2022/05/06 02:47:10;;;;;;;5.45;3.78;;;19.30;47.80;;;;;;5028599;28;20198;-88
2022/05/06 02:49:37;;;;;;;4.30;3.58;;;19.30;47.90;;;;;;5011867;28;20194;-87
2022/05/06 02:52:09;;;;;;;5.80;4.03;;;19.30;47.90;;;;;;4995040;28;20636;-88
2022/05/06 02:54:36;;;;;;;5.32;3.83;;;19.30;47.80;;;;;;4995041;28;20178;-88
2022/05/06 02:57:03;;;;;;;4.22;3.78;;;19.30;48.00;;;;;;5010924;28;20178;-88
2022/05/06 02:59:31;;;;;;;5.65;4.20;;;19.30;48.00;;;;;;5027816;28;20189;-88
2022/05/06 03:02:05;;;;;;;5.53;4.00;;;19.30;48.00;;;;;;5011631;28;20241;-88
2022/05/06 03:04:41;;;;;;;5.13;4.15;;;19.30;47.90;;;;;;5012204;28;20192;-88
2022/05/06 03:07:13;;;;;;;7.57;4.05;;;19.20;48.00;;;;;;5027738;28;20245;-88
2022/05/06 03:09:43;;;;;;;4.35;3.72;;;19.30;47.90;;;;;;5011268;28;20189;-88
2022/05/06 03:12:17;;;;;;;5.72;4.05;;;19.30;48.00;;;;;;5028315;28;20517;-88
2022/05/06 03:14:50;;;;;;;9.45;3.88;;;19.30;48.00;;;;;;5012179;28;20181;-88
2022/05/06 03:17:17;;;;;;;7.40;3.55;;;19.30;48.00;;;;;;5027782;28;20201;-88
2022/05/06 03:19:47;;;;;;;8.40;4.00;;;19.40;48.00;;;;;;5011418;28;20186;-88
2022/05/06 03:22:15;;;;;;;5.18;3.80;;;19.30;48.00;;;;;;5011339;28;20221;-89
2022/05/06 03:24:43;;;;;;;4.63;3.80;;;19.30;47.90;;;;;;5010978;28;20192;-88
2022/05/06 03:27:59;;;;;;;4.07;3.67;;;19.30;48.00;;;;;;5044246;28;20652;-88
2022/05/06 03:30:00;;;;;;;4.28;3.58;;;19.30;48.00;;;;;;5046389;28;20165;-88
2022/05/06 03:32:27;;;;;;;4.70;3.90;;;19.20;47.90;;;;;;5027065;28;20190;-88
2022/05/06 03:34:53;;;;;;;5.18;4.10;;;19.30;48.00;;;;;;5028088;28;20177;-88
2022/05/06 03:37:25;;;;;;;5.78;4.20;;;19.30;48.00;;;;;;5044551;28;20244;-88
2022/05/06 03:39:51;;;;;;;5.15;3.58;;;19.30;47.90;;;;;;5010360;28;20174;-88
2022/05/06 03:42:22;;;;;;;4.50;3.85;;;19.30;47.90;;;;;;5027610;28;20181;-88
2022/05/06 03:44:54;;;;;;;5.47;4.20;;;19.20;47.90;;;;;;5026681;28;20185;-88
2022/05/06 03:47:24;;;;;;;4.65;3.80;;;19.30;47.80;;;;;;5009299;28;20331;-88
2022/05/06 03:51:20;;;;;;;4.80;4.00;;;19.30;47.90;;;;;;5009325;28;20253;-88
2022/05/06 03:52:35;;;;;;;4.57;4.07;;;19.30;47.90;;;;;;5046075;28;20169;-88
2022/05/06 03:55:06;;;;;;;4.75;3.70;;;19.30;48.00;;;;;;5042953;28;20234;-87
2022/05/06 03:57:36;;;;;;;4.35;3.55;;;19.30;48.00;;;;;;4993261;28;20201;-88
2022/05/06 04:00:19;;;;;;;4.05;3.65;;;19.30;47.90;;;;;;5026439;28;20272;-87
2022/05/06 04:02:47;;;;;;;4.80;3.75;;;19.30;47.70;;;;;;5042859;28;20252;-88
2022/05/06 04:05:15;;;;;;;4.70;3.90;;;19.30;47.90;;;;;;5026289;28;20193;-88
2022/05/06 04:07:41;;;;;;;4.97;3.92;;;19.30;47.80;;;;;;5025640;28;20222;-88
2022/05/06 04:10:14;;;;;;;5.13;4.00;;;19.40;47.90;;;;;;5026411;28;20253;-88
2022/05/06 04:12:45;;;;;;;4.75;3.63;;;19.30;47.90;;;;;;5025805;28;20273;-88
2022/05/06 04:15:12;;;;;;;4.25;3.50;;;19.30;47.80;;;;;;5008252;28;20190;-88
2022/05/06 04:17:44;;;;;;;4.88;3.90;;;19.40;47.90;;;;;;5025488;28;20158;-87
2022/05/06 04:23:55;;;;;;;5.22;4.10;;;19.40;47.90;;;;;;5043014;28;20185;-88
2022/05/06 04:25:44;;;;;;;5.70;3.90;;;19.30;47.80;;;;;;5030834;28;20728;-88
2022/05/06 04:28:14;;;;;;;5.53;3.67;;;19.40;48.00;;;;;;5024942;28;20212;-88
2022/05/06 04:30:43;;;;;;;4.78;3.92;;;19.40;48.80;;;;;;5012532;28;20205;-87
2022/05/06 04:33:13;;;;;;;4.25;3.83;;;19.40;48.20;;;;;;5028578;28;20188;-88
2022/05/06 04:35:50;;;;;;;6.40;3.58;;;19.40;49.00;;;;;;5011952;28;20190;-88
2022/05/06 04:38:16;;;;;;;4.70;3.90;;;19.30;48.30;;;;;;5012180;28;20185;-87
2022/05/06 04:40:53;;;;;;;4.95;3.60;;;19.30;48.30;;;;;;5045009;28;20165;-88
2022/05/06 04:43:25;;;;;;;6.13;4.00;;;19.30;48.30;;;;;;5011253;28;20197;-87
2022/05/06 04:45:51;;;;;;;5.13;4.00;;;19.30;48.30;;;;;;5044716;28;20190;-87
2022/05/06 04:48:19;;;;;;;4.85;3.67;;;19.30;48.30;;;;;;5028309;28;20187;-88
2022/05/06 04:50:49;;;;;;;4.90;3.85;;;19.30;48.20;;;;;;5027748;28;20608;-88
2022/05/06 04:53:23;;;;;;;4.85;4.20;;;19.30;48.30;;;;;;5011444;28;20208;-87
2022/05/06 04:55:54;;;;;;;4.45;3.47;;;19.30;47.90;;;;;;5011545;28;20192;-88
2022/05/06 04:58:24;;;;;;;4.13;3.65;;;19.40;47.90;;;;;;5011725;28;20273;-88
2022/05/06 05:00:54;;;;;;;5.25;3.70;;;19.30;47.90;;;;;;5027145;28;20268;-88
2022/05/06 05:03:25;;;;;;;4.50;3.63;;;19.40;47.80;;;;;;5027845;28;20196;-88
2022/05/06 05:05:51;;;;;;;4.93;3.47;;;19.40;47.80;;;;;;5027425;28;20214;-88
2022/05/06 05:08:21;;;;;;;4.50;3.50;;;19.40;47.80;;;;;;5027753;28;20559;-88
2022/05/06 05:10:51;;;;;;;4.53;3.60;;;19.40;47.60;;;;;;5027864;28;20182;-88
2022/05/06 05:13:20;;;;;;;5.53;3.50;;;19.40;47.70;;;;;;5011054;28;20226;-88
2022/05/06 05:15:49;;;;;;;4.20;3.28;;;19.50;47.40;;;;;;5029045;28;20182;-87
2022/05/06 05:18:18;;;;;;;3.90;3.20;;;19.40;47.70;;;;;;5029807;28;20174;-88
2022/05/06 05:20:44;;;;;;;3.97;3.10;;;19.30;47.50;;;;;;5028579;28;20170;-88
2022/05/06 05:23:15;;;;;;;3.47;3.13;;;19.40;47.50;;;;;;5027838;28;20227;-88
2022/05/06 05:25:45;;;;;;;4.13;3.17;;;19.40;47.40;;;;;;5027554;28;20202;-88
2022/05/06 05:28:16;;;;;;;4.00;3.25;;;19.40;47.50;;;;;;5028451;28;20166;-88
2022/05/06 05:30:42;;;;;;;4.32;2.90;;;19.40;47.30;;;;;;5045405;28;20256;-87
2022/05/06 05:33:10;;;;;;;3.95;3.13;;;19.40;47.90;;;;;;5027317;28;20212;-87
2022/05/06 05:35:39;;;;;;;3.92;3.13;;;19.40;47.60;;;;;;5029119;28;20253;-88
2022/05/06 05:38:12;;;;;;;3.58;2.75;;;19.40;47.30;;;;;;5028655;28;20175;-88
2022/05/06 05:40:42;;;;;;;4.15;3.28;;;19.40;47.40;;;;;;5009199;28;20185;-88
2022/05/06 05:48:19;;;;;;;4.20;3.17;;;19.40;47.60;;;;;;5010308;28;20249;-88
2022/05/06 05:48:41;;;;;;;4.20;3.03;;;19.40;47.50;;;;;;5043608;28;20162;-87
2022/05/06 05:51:07;;;;;;;3.65;3.10;;;19.40;47.30;;;;;;5041252;28;20152;-88
2022/05/06 05:53:39;;;;;;;4.38;3.42;;;19.40;47.40;;;;;;5024712;28;20162;-87
2022/05/06 05:56:10;;;;;;;3.50;2.97;;;19.40;47.70;;;;;;5023632;28;20193;-88
2022/05/06 05:58:42;;;;;;;4.28;3.60;;;19.40;47.50;;;;;;5040948;28;20158;-87
2022/05/06 06:01:09;;;;;;;4.57;2.95;;;19.40;47.50;;;;;;5007304;28;20591;-87
2022/05/06 06:03:40;;;;;;;3.30;3.00;;;19.40;47.30;;;;;;5064874;28;20508;-87
2022/05/06 06:06:06;;;;;;;5.57;3.40;;;19.40;47.40;;;;;;5025803;28;20209;-87
2022/05/06 06:08:33;;;;;;;5.10;3.22;;;19.40;47.60;;;;;;5039067;28;20617;-86
2022/05/06 06:11:01;;;;;;;3.78;3.22;;;19.40;47.40;;;;;;5039257;28;20166;-86
2022/05/06 06:13:27;;;;;;;3.72;3.00;;;19.40;47.00;;;;;;5019209;28;20174;-87
2022/05/06 06:15:53;;;;;;;4.57;3.05;;;19.50;47.40;;;;;;5035830;28;20181;-86
2022/05/06 06:18:26;;;;;;;3.47;3.00;;;19.40;47.20;;;;;;5019065;28;20178;-86
2022/05/06 06:20:54;;;;;;;3.33;2.60;;;19.50;47.20;;;;;;5017873;28;20797;-87
2022/05/06 06:23:21;;;;;;;3.78;2.83;;;19.50;46.90;;;;;;5019793;28;20681;-87
2022/05/06 06:25:50;;;;;;;4.05;3.08;;;19.50;47.30;;;;;;5019745;28;20206;-87
2022/05/06 06:28:18;;;;;;;3.72;3.08;;;19.50;47.00;;;;;;5043152;28;20610;-87
2022/05/06 06:30:44;;;;;;;3.72;2.92;;;19.60;46.90;;;;;;5026684;28;20209;-87
2022/05/06 06:33:13;;;;;;;4.00;2.90;;;19.50;46.90;;;;;;5043852;28;20175;-87
2022/05/06 06:35:39;;;;;;;3.55;2.80;;;19.50;47.10;;;;;;5042219;28;20182;-87
2022/05/06 06:38:06;;;;;;;3.05;2.75;;;19.50;46.90;;;;;;5024827;28;20213;-87
2022/05/06 06:40:34;;;;;;;3.10;2.70;;;19.60;46.90;;;;;;5026429;28;20181;-87
2022/05/06 06:43:02;;;;;;;4.95;3.00;;;19.60;47.10;;;;;;5046617;28;20158;-87
2022/05/06 06:45:28;;;;;;;3.30;2.92;;;19.50;46.90;;;;;;5031251;28;20552;-87
2022/05/06 06:47:53;;;;;;;4.22;3.22;;;19.60;47.10;;;;;;5016145;28;20162;-88
2022/05/06 06:50:24;;;;;;;3.63;3.00;;;19.50;47.20;;;;;;5047494;28;20177;-87
2022/05/06 06:52:53;;;;;;;3.97;3.30;;;19.50;47.10;;;;;;4980446;28;20182;-88
2022/05/06 06:55:19;;;;;;;4.47;2.97;;;19.60;47.20;;;;;;5031966;28;20166;-88
2022/05/06 06:57:44;;;;;;;3.28;2.97;;;19.60;47.80;;;;;;5031506;28;20166;-87
2022/05/06 07:00:16;;;;;;;3.40;3.10;;;19.60;46.90;;;;;;5031818;28;20220;-87
2022/05/06 07:02:42;;;;;;;3.83;2.85;;;19.60;47.10;;;;;;4982633;28;20196;-87
2022/05/06 07:05:09;;;;;;;4.15;3.30;;;19.60;47.00;;;;;;5015168;28;20226;-87
2022/05/06 07:13:11;;;;;;;3.80;3.38;;;19.60;47.00;;;;;;5025812;28;20260;-87
2022/05/06 07:15:37;;;;;;;3.42;3.03;;;19.60;47.10;;;;;;5049458;28;20197;-87
2022/05/06 07:18:03;;;;;;;3.67;3.00;;;19.60;46.90;;;;;;5064248;28;20194;-87
2022/05/06 07:20:31;;;;;;;4.90;3.38;;;19.70;47.00;;;;;;5063263;28;20628;-87
2022/05/06 07:23:04;;;;;;;3.50;2.90;;;19.60;47.00;;;;;;5043120;28;20203;-87
2022/05/06 07:25:31;;;;;;;3.47;3.10;;;19.70;47.00;;;;;;5045872;28;20204;-88
2022/05/06 07:28:00;;;;;;;4.18;3.25;;;19.70;47.00;;;;;;5045681;28;20157;-87
2022/05/06 07:30:26;;;;;;;3.97;2.80;;;19.70;46.80;;;;;;5059976;28;20182;-88
2022/05/06 07:32:54;;;;;;;3.45;3.15;;;19.70;46.70;;;;;;5060518;28;20157;-87
2022/05/06 07:35:27;;;;;;;3.63;2.95;;;19.80;46.60;;;;;;5042226;28;20161;-87
2022/05/06 07:37:53;;;;;;;4.28;3.17;;;19.70;46.60;;;;;;5041535;28;20165;-89
2022/05/06 07:40:21;;;;;;;3.90;2.95;;;19.70;46.30;;;;;;5058256;28;20600;-88
2022/05/06 07:42:50;;;;;;;3.80;3.05;;;19.80;46.50;;;;;;5024585;28;20612;-88
2022/05/06 07:45:17;;;;;;;3.13;2.70;;;19.80;46.50;;;;;;5041188;28;20162;-87
2022/05/06 07:47:46;;;;;;;3.83;3.25;;;19.70;47.30;;;;;;5040769;28;20166;-88
2022/05/06 07:50:11;;;;;;;3.92;3.03;;;19.80;46.20;;;;;;5024824;28;20189;-89
2022/05/06 07:52:38;;;;;;;4.50;3.00;;;19.80;46.10;;;;;;5024236;28;20239;-88
2022/05/06 07:55:06;;;;;;;3.60;2.90;;;19.80;46.30;;;;;;5021116;28;20655;-88
2022/05/06 07:57:37;;;;;;;3.40;3.08;;;19.90;46.20;;;;;;5041612;28;20173;-88
2022/05/06 08:00:11;;;;;;;3.35;2.90;;;19.90;46.30;;;;;;5059005;28;20592;-88
2022/05/06 08:05:27;;;;;;;4.25;3.05;;;19.90;46.10;;;;;;5047768;28;20275;-87
2022/05/06 08:07:56;;;;;;;4.25;3.10;;;19.90;46.00;;;;;;5043821;28;20220;-88
2022/05/06 08:10:24;;;;;;;3.58;2.85;;;20.00;46.00;;;;;;5047043;28;20176;-88
2022/05/06 08:12:51;;;;;;;3.20;2.90;;;19.90;45.90;;;;;;5028279;28;20171;-88
2022/05/06 08:15:16;;;;;;;3.20;2.88;;;19.90;46.20;;;;;;5039847;28;20162;-88
2022/05/06 08:17:42;;;;;;;3.58;2.95;;;19.90;46.10;;;;;;5058040;28;20208;-87
2022/05/06 08:20:10;;;;;;;3.20;2.90;;;19.80;46.10;;;;;;5040391;28;20172;-86
2022/05/06 08:22:38;;;;;;;4.65;3.10;;;19.90;46.20;;;;;;5022515;28;20190;-87
2022/05/06 08:25:05;;;;;;;4.35;3.20;;;19.90;46.10;;;;;;5037285;28;20627;-86
2022/05/06 08:27:37;;;;;;;4.13;3.42;;;19.90;46.10;;;;;;5038528;28;20181;-87
2022/05/06 08:30:05;;;;;;;3.83;3.30;;;19.90;46.30;;;;;;5021078;28;20260;-87
2022/05/06 08:32:33;;;;;;;4.28;3.05;;;19.90;46.10;;;;;;5073664;28;20708;-87
2022/05/06 08:35:00;;;;;;;3.83;3.17;;;19.90;46.20;;;;;;5075721;28;20228;-88
2022/05/06 08:37:28;;;;;;;3.92;3.05;;;20.00;46.10;;;;;;5058394;28;20571;-87
2022/05/06 08:39:55;;;;;;;4.63;3.20;;;20.00;46.00;;;;;;5039147;28;20717;-87
2022/05/06 08:42:21;;;;;;;5.18;3.30;;;20.00;46.10;;;;;;5037302;28;20215;-87
2022/05/06 08:53:05;;;;;;;3.67;2.75;;;20.00;46.30;;;;;;5067213;28;20156;-88
2022/05/06 08:55:39;;;;;;;4.38;3.03;;;20.00;46.20;;;;;;5027799;28;20192;-87
2022/05/06 08:58:08;;;;;;;3.10;2.72;;;20.00;46.30;;;;;;5028931;28;20200;-88
2022/05/06 09:00:35;;;;;;;4.55;2.85;;;20.00;46.30;;;;;;5063986;28;20279;-87
2022/05/06 09:03:03;;;;;;;3.63;2.88;;;19.90;46.30;;;;;;5059822;28;20200;-88
2022/05/06 09:05:31;;;;;;;3.60;2.83;;;19.90;46.20;;;;;;5025035;28;20205;-88
2022/05/06 09:08:04;;;;;;;4.25;3.15;;;20.00;46.20;;;;;;5025833;28;20270;-87
2022/05/06 09:10:31;;;;;;;3.50;3.20;;;20.00;46.20;;;;;;5027703;28;20237;-87
2022/05/06 09:13:00;;;;;;;3.58;2.70;;;20.00;45.90;;;;;;5042977;28;20233;-87
2022/05/06 09:18:22;;;;;;;3.10;2.80;;;20.10;45.60;;;;;;5034578;28;20508;-87
2022/05/06 09:20:49;;;;;;;3.58;2.85;;;20.00;45.50;;;;;;5012869;28;20173;-87
2022/05/06 09:23:25;;;;;;;3.55;2.90;;;20.10;45.50;;;;;;5029497;28;20214;-88
2022/05/06 09:25:52;;;;;;;5.68;2.80;;;20.10;45.50;;;;;;5012535;28;20300;-87
2022/05/06 09:28:26;;;;;;;3.28;2.90;;;20.10;45.50;;;;;;5046263;28;20230;-88
2022/05/06 09:31:07;;;;;;;3.22;2.83;;;20.00;45.50;;;;;;5046459;28;20153;-88
2022/05/06 09:33:35;;;;;;;2.55;2.35;;;20.10;45.50;;;;;;5029010;28;20199;-88
2022/05/06 09:36:23;;;;;;;4.18;3.15;;;20.10;45.50;;;;;;5045268;28;20177;-88
2022/05/06 09:39:05;;;;;;;2.97;2.67;;;20.00;45.70;;;;;;5062490;28;20242;-89
2022/05/06 09:41:32;;;;;;;3.42;2.70;;;19.90;45.70;;;;;;5045405;28;20158;-87
2022/05/06 09:44:01;;;;;;;3.10;2.67;;;20.00;45.40;;;;;;5026816;28;20177;-88
2022/05/06 09:46:26;;;;;;;4.28;2.60;;;20.00;45.30;;;;;;5060816;28;20181;-88
2022/05/06 09:48:56;;;;;;;3.05;2.75;;;20.00;45.30;;;;;;5029421;28;20226;-87
2022/05/06 09:51:33;;;;;;;3.58;2.42;;;20.00;45.50;;;;;;5026950;28;20620;-88
2022/05/06 09:54:02;;;;;;;2.90;2.05;;;20.00;45.40;;;;;;5044850;28;20146;-87
2022/05/06 09:56:29;;;;;;;4.25;2.80;;;20.10;45.20;;;;;;5044078;28;20165;-87
2022/05/06 09:58:57;;;;;;;2.92;2.67;;;20.10;45.40;;;;;;5029224;28;20260;-87
2022/05/06 10:01:24;;;;;;;3.40;2.78;;;20.10;45.30;;;;;;5059995;28;20173;-86
2022/05/06 10:03:52;;;;;;;4.32;2.70;;;19.90;45.50;;;;;;5059396;28;20169;-87
2022/05/06 10:06:17;;;;;;;3.33;2.70;;;20.00;45.40;;;;;;5043314;28;20225;-85
2022/05/06 10:08:48;;;;;;;3.13;2.78;;;20.00;45.50;;;;;;5059196;28;20169;-87
2022/05/06 10:11:14;;;;;;;5.32;2.90;;;20.00;45.40;;;;;;5025909;28;20165;-87
2022/05/06 10:13:44;;;;;;;3.15;2.60;;;20.00;45.50;;;;;;5025736;28;20173;-87
2022/05/06 10:16:14;;;;;;;3.67;2.70;;;20.00;45.50;;;;;;5025637;28;20226;-87
2022/05/06 10:18:43;;;;;;;4.03;2.70;;;20.00;45.50;;;;;;5060081;28;20150;-86
2022/05/06 10:21:11;;;;;;;2.78;2.47;;;20.00;45.40;;;;;;5042135;28;20208;-87
2022/05/06 10:23:57;;;;;;;3.70;2.80;;;20.00;45.50;;;;;;5027145;28;20685;-87
2022/05/06 10:26:37;;;;;;;2.67;2.40;;;20.10;45.60;;;;;;5039073;28;20210;-87
2022/05/06 10:34:22;;;;;;;2.75;2.50;;;20.00;45.50;;;;;;5044190;28;20249;-87
2022/05/06 10:36:53;;;;;;;2.88;2.50;;;20.00;45.70;;;;;;5049625;28;20173;-87
2022/05/06 10:39:36;;;;;;;3.85;3.10;;;20.00;45.30;;;;;;5042424;28;20287;-86
2022/05/06 10:42:16;;;;;;;4.40;3.20;;;20.10;45.40;;;;;;5045278;28;20180;-86
2022/05/06 10:44:44;;;;;;;3.08;2.67;;;20.00;45.30;;;;;;5042404;28;20166;-86
2022/05/06 10:47:47;;;;;;;3.05;2.70;;;20.10;45.30;;;;;;5042938;28;20177;-87
2022/05/06 10:50:15;;;;;;;3.25;2.67;;;20.10;45.40;;;;;;5042134;28;20658;-88
2022/05/06 10:52:41;;;;;;;2.88;2.58;;;20.00;45.40;;;;;;5026040;28;20248;-88
2022/05/06 10:55:10;;;;;;;3.30;2.80;;;20.10;45.40;;;;;;5042183;28;20173;-86
2022/05/06 10:57:57;;;;;;;2.60;2.40;;;20.10;45.30;;;;;;4993212;28;20185;-88
2022/05/06 11:00:29;;;;;;;3.13;2.65;;;20.10;45.30;;;;;;5042448;28;20199;-87
2022/05/06 11:02:59;;;;;;;3.40;2.85;;;20.20;45.30;;;;;;4992340;28;20643;-87
2022/05/06 11:05:29;;;;;;;2.92;2.63;;;20.20;45.20;;;;;;5008641;28;20208;-86
2022/05/06 11:07:58;;;;;;;3.17;2.67;;;20.20;45.20;;;;;;5025117;28;20303;-88
2022/05/06 11:10:26;;;;;;;3.63;2.50;;;20.20;45.30;;;;;;5008814;28;20181;-87
2022/05/06 11:12:53;;;;;;;3.03;2.67;;;20.20;45.20;;;;;;5041525;28;20256;-85
2022/05/06 11:15:21;;;;;;;2.90;2.63;;;20.20;45.10;;;;;;4991891;28;20185;-87
2022/05/06 11:17:48;;;;;;;3.25;2.90;;;20.20;45.30;;;;;;5023696;28;20177;-87
2022/05/06 11:20:27;;;;;;;4.32;2.95;;;20.20;45.20;;;;;;5059158;28;20158;-89
2022/05/06 11:22:59;;;;;;;3.53;2.70;;;20.20;45.20;;;;;;5041654;28;20169;-88
2022/05/06 11:25:27;;;;;;;3.55;2.75;;;20.20;45.20;;;;;;5008797;28;20177;-89
2022/05/06 11:27:59;;;;;;;4.25;2.88;;;20.20;45.10;;;;;;5059382;28;20172;-88
2022/05/06 11:30:29;;;;;;;3.25;2.70;;;20.20;45.30;;;;;;4993887;28;20234;-89
2022/05/06 11:33:06;;;;;;;4.25;3.10;;;20.10;45.40;;;;;;4994886;28;20177;-89
2022/05/06 11:35:46;;;;;;;3.28;2.97;;;20.10;45.50;;;;;;5000159;28;20181;-88
2022/05/06 11:38:35;;;;;;;2.95;2.65;;;20.10;45.50;;;;;;5046902;28;20627;-88
2022/05/06 11:41:09;;;;;;;3.28;2.80;;;20.10;45.40;;;;;;5037056;28;20612;-86
2022/05/06 11:43:41;;;;;;;3.45;2.67;;;20.20;45.50;;;;;;5029821;28;20169;-88
2022/05/06 11:49:05;;;;;;;3.00;2.60;;;20.20;45.50;;;;;;4990784;28;20187;-89
2022/05/06 11:51:39;;;;;;;3.00;2.70;;;20.20;46.10;;;;;;4968271;28;20223;-88
2022/05/06 11:54:11;;;;;;;3.63;2.80;;;20.10;45.50;;;;;;4970423;28;20180;-87
2022/05/06 11:56:41;;;;;;;2.88;2.60;;;20.10;45.50;;;;;;4987023;28;20187;-88
2022/05/06 11:59:08;;;;;;;4.20;2.90;;;20.10;45.50;;;;;;4985198;28;20190;-89
2022/05/06 12:01:35;;;;;;;2.90;2.60;;;20.20;46.10;;;;;;4999179;28;20202;-88
2022/05/06 12:04:09;;;;;;;2.97;2.65;;;20.20;45.20;;;;;;4997566;28;20191;-89
2022/05/06 12:06:38;;;;;;;3.35;2.80;;;20.20;45.30;;;;;;4967540;28;20223;-88
2022/05/06 12:09:17;;;;;;;3.17;2.75;;;20.20;45.30;;;;;;5015182;28;20183;-87
2022/05/06 12:11:44;;;;;;;4.47;2.95;;;20.20;45.30;;;;;;4967211;28;20306;-89
2022/05/06 12:14:13;;;;;;;4.00;2.78;;;20.10;45.30;;;;;;5015017;28;20182;-88
2022/05/06 12:16:56;;;;;;;3.28;2.97;;;20.20;45.30;;;;;;5001469;28;20163;-89
2022/05/06 12:19:37;;;;;;;3.40;3.10;;;20.10;45.50;;;;;;5018104;28;20252;-89
2022/05/06 12:22:16;;;;;;;3.47;2.90;;;20.20;45.50;;;;;;4991673;28;20185;-88
2022/05/06 12:24:52;;;;;;;3.00;2.70;;;20.10;46.10;;;;;;4992120;28;20543;-89
2022/05/06 12:27:30;;;;;;;3.38;3.00;;;20.10;45.60;;;;;;5058657;28;20196;-88
2022/05/06 12:30:01;;;;;;;3.50;2.92;;;20.10;45.60;;;;;;5007877;28;20267;-88
2022/05/06 12:32:28;;;;;;;2.90;2.60;;;20.10;45.60;;;;;;5008074;28;20238;-89
2022/05/06 12:35:07;;;;;;;3.42;2.83;;;20.20;45.60;;;;;;5041749;28;20168;-88
2022/05/06 12:37:53;;;;;;;3.22;2.55;;;20.20;45.60;;;;;;5040418;28;20581;-89
2022/05/06 12:40:31;;;;;;;3.10;2.80;;;20.10;45.50;;;;;;5056254;28;20165;-88
2022/05/06 12:43:12;;;;;;;3.83;2.88;;;20.10;45.50;;;;;;5010499;28;20180;-88
2022/05/06 12:45:59;;;;;;;3.78;3.28;;;20.20;45.60;;;;;;5047904;28;20655;-88
2022/05/06 12:51:22;;;;;;;2.72;2.42;;;20.10;45.40;;;;;;5043466;28;20177;-89
2022/05/06 12:53:50;;;;;;;3.15;2.85;;;20.10;45.30;;;;;;5004410;28;20268;-90
2022/05/06 12:56:27;;;;;;;3.28;2.80;;;20.20;45.20;;;;;;5025516;28;20185;-89
2022/05/06 12:59:01;;;;;;;2.97;2.67;;;20.20;45.20;;;;;;4987966;28;20224;-89
2022/05/06 13:01:43;;;;;;;3.13;2.83;;;20.20;45.00;;;;;;4988114;28;20640;-89
2022/05/06 13:04:24;;;;;;;4.03;3.33;;;20.30;45.10;;;;;;4973704;28;20269;-89
2022/05/06 13:06:50;;;;;;;3.40;2.90;;;20.20;45.10;;;;;;4987802;28;20225;-89
2022/05/06 13:09:29;;;;;;;3.63;2.40;;;20.20;45.10;;;;;;5005300;28;20175;-88
2022/05/06 13:12:09;;;;;;;3.25;2.55;;;20.20;45.00;;;;;;4971776;28;20178;-88
2022/05/06 13:14:45;;;;;;;2.92;2.70;;;20.30;44.90;;;;;;4987308;28;20206;-87
2022/05/06 13:17:21;;;;;;;5.70;2.75;;;20.30;45.00;;;;;;4986616;28;20277;-88
2022/05/06 13:19:56;;;;;;;3.40;3.00;;;20.30;44.90;;;;;;4969647;28;20190;-87
2022/05/06 13:22:31;;;;;;;3.30;2.67;;;20.30;44.80;;;;;;4985698;28;20185;-87
2022/05/06 13:24:56;;;;;;;3.22;2.55;;;20.30;44.70;;;;;;4969423;28;20197;-88
2022/05/06 13:27:29;;;;;;;3.10;2.80;;;20.30;44.50;;;;;;5018190;28;20683;-88
2022/05/06 13:30:00;;;;;;;3.03;2.65;;;20.30;44.60;;;;;;4985395;28;20182;-88
2022/05/06 13:32:30;;;;;;;2.47;2.28;;;20.40;44.30;;;;;;4969752;28;20187;-87
2022/05/06 13:35:05;;;;;;;2.45;2.25;;;20.40;44.10;;;;;;5009088;28;20180;-88
2022/05/06 13:37:37;;;;;;;3.80;2.50;;;20.40;43.90;;;;;;5008730;28;20219;-88
2022/05/06 13:40:10;;;;;;;3.78;2.33;;;20.40;43.80;;;;;;5008993;28;20177;-88
2022/05/06 13:42:42;;;;;;;2.45;2.22;;;20.40;43.80;;;;;;5010331;28;20181;-89
2022/05/06 13:45:13;;;;;;;3.05;1.95;;;20.40;43.70;;;;;;5009536;28;20211;-89
2022/05/06 13:47:43;;;;;;;3.05;2.20;;;20.40;43.50;;;;;;5010507;28;20189;-88